createdAt,value
2023-05-05T05:20:20.058Z,12.43
2023-05-05T05:21:49.758Z,12.43
2023-05-05T05:23:19.442Z,12.49
2023-05-05T05:24:49.098Z,12.52
2023-05-05T05:26:18.770Z,12.59
2023-05-05T05:33:45.058Z,12.77
2023-05-05T05:35:14.732Z,12.80
2023-05-05T05:36:44.396Z,12.85
2023-05-05T05:47:39.211Z,13.16
2023-05-05T05:49:08.860Z,13.16
2023-05-05T05:50:38.588Z,13.14
2023-05-05T05:52:08.227Z,13.16
2023-05-05T05:53:37.888Z,13.17
2023-05-05T05:55:07.602Z,13.21
2023-05-05T05:56:37.243Z,13.24
2023-05-05T05:58:06.903Z,13.27
2023-05-05T05:59:36.572Z,13.25
2023-05-05T06:01:06.262Z,13.29
2023-05-05T06:02:36.394Z,13.38
2023-05-05T06:25:22.713Z,14.06
2023-05-05T06:26:52.439Z,14.09
2023-05-05T06:28:22.120Z,14.11
2023-05-05T06:29:51.801Z,14.12
2023-05-05T06:31:21.533Z,14.17
2023-05-05T06:32:51.180Z,14.17
2023-05-05T06:59:37.106Z,14.78
2023-05-05T07:01:06.884Z,14.83
2023-05-05T07:02:36.529Z,14.86
2023-05-05T07:04:06.220Z,14.94
2023-05-05T07:05:36.045Z,15.04
2023-05-05T07:07:05.783Z,15.09
2023-05-05T07:08:35.610Z,15.19
2023-05-05T09:28:41.001Z,19.25
2023-05-05T09:30:10.729Z,19.32
2023-05-05T09:31:40.400Z,19.38
2023-05-05T09:33:10.122Z,19.42
2023-05-05T09:34:39.759Z,19.49
2023-05-05T10:50:59.953Z,21.16
2023-05-05T10:52:29.829Z,21.12
2023-05-05T10:53:59.582Z,21.16
2023-05-05T10:55:29.386Z,21.21
2023-05-05T10:56:59.121Z,21.26
2023-05-05T10:58:28.758Z,21.30
2023-05-05T10:59:58.524Z,21.36
2023-05-05T11:01:29.220Z,21.43
2023-05-05T11:02:58.945Z,21.36
2023-05-05T11:04:29.477Z,21.40
2023-05-05T11:05:59.169Z,21.37
2023-05-05T11:07:28.846Z,21.37
2023-05-05T11:25:30.382Z,22.06
2023-05-05T11:27:00.040Z,22.17
2023-05-05T11:28:30.017Z,22.26
2023-05-05T11:29:59.689Z,22.39
2023-05-05T11:31:29.436Z,22.31
2023-05-05T12:18:02.772Z,22.33
2023-05-05T12:19:30.640Z,22.41
2023-05-05T12:21:00.277Z,22.48
2023-05-05T12:22:29.955Z,22.49
2023-05-05T12:23:59.636Z,22.49
2023-05-05T12:40:21.412Z,25.41
2023-05-05T12:41:51.090Z,26.21
2023-05-05T13:27:52.310Z,35.07
2023-05-05T13:29:23.534Z,34.60
2023-05-05T13:30:51.798Z,33.89
2023-05-05T13:32:21.328Z,33.55
2023-05-05T13:33:51.005Z,33.49
2023-05-05T13:35:20.671Z,33.21
2023-05-05T13:36:50.344Z,32.90
2023-05-05T13:38:20.001Z,32.54
2023-05-05T13:39:49.684Z,32.21
2023-05-05T13:41:19.346Z,31.67
2023-05-05T13:42:49.008Z,31.05
2023-05-05T13:44:18.983Z,30.48
2023-05-05T13:45:48.687Z,30.13
2023-05-05T13:47:18.466Z,29.73
2023-05-05T14:35:00.551Z,23.45
2023-05-05T14:36:30.188Z,23.34
2023-05-05T14:37:59.878Z,23.21
